Time;durP1;ratioP1;P1;durP2;ratioP2;P2;SDS_P1;SDS_P2;PMS_P1;PMS_P2;Temp;Humidity;BMP_temperature;BMP_pressure;BME280_temperature;BME280_humidity;BME280_pressure;Samples;Min_cycle;Max_cycle;Signal;HPM_P1;HPM_P2
2023/01/09 00:01:33;;;;;;;2.75;1.60;;;9.10;99.90;;;;;;5049666;28;20082;-80
2023/01/09 00:03:58;;;;;;;3.40;1.40;;;9.10;99.90;;;;;;5048646;28;20025;-81
2023/01/09 00:06:24;;;;;;;5.45;1.48;;;9.20;99.90;;;;;;5039547;28;20024;-81
2023/01/09 00:08:50;;;;;;;4.28;1.33;;;9.10;99.90;;;;;;5030856;28;20025;-81
2023/01/09 00:11:15;;;;;;;7.57;1.83;;;9.10;99.90;;;;;;5034151;28;20534;-81
2023/01/09 00:13:41;;;;;;;2.92;2.03;;;9.20;99.90;;;;;;5036944;28;20028;-81
2023/01/09 00:16:07;;;;;;;2.60;1.38;;;9.20;99.90;;;;;;5053891;28;20063;-82
2023/01/09 00:18:34;;;;;;;4.22;1.75;;;9.20;99.90;;;;;;5053654;28;20025;-81
2023/01/09 00:21:01;;;;;;;4.43;1.75;;;9.20;99.90;;;;;;5048091;28;20022;-81
2023/01/09 00:23:27;;;;;;;2.85;1.17;;;9.20;99.90;;;;;;5045422;28;20116;-81
2023/01/09 00:26:08;;;;;;;3.78;1.35;;;9.20;99.90;;;;;;5048974;28;20563;-81
2023/01/09 00:28:35;;;;;;;4.93;1.58;;;9.30;99.90;;;;;;5047960;28;20025;-81
2023/01/09 00:31:02;;;;;;;4.32;1.48;;;9.30;99.90;;;;;;5046688;28;20398;-81
2023/01/09 00:33:33;;;;;;;4.03;1.20;;;9.40;99.90;;;;;;5053104;28;20025;-80
2023/01/09 00:35:59;;;;;;;4.45;1.10;;;9.40;99.90;;;;;;5053318;28;20017;-81
2023/01/09 00:38:25;;;;;;;3.58;1.35;;;9.40;99.90;;;;;;5053171;28;20037;-80
2023/01/09 00:40:53;;;;;;;4.93;1.30;;;9.30;99.90;;;;;;5048868;28;20056;-81
2023/01/09 00:43:20;;;;;;;8.52;1.60;;;9.40;99.90;;;;;;5051784;28;20047;-81
2023/01/09 00:45:46;;;;;;;7.97;1.58;;;9.30;99.90;;;;;;5053248;28;20017;-81
2023/01/09 00:48:23;;;;;;;7.13;1.58;;;9.30;99.90;;;;;;5053289;28;20508;-82
2023/01/09 00:50:49;;;;;;;7.45;1.85;;;9.30;99.90;;;;;;5053388;28;20455;-81
2023/01/09 00:53:20;;;;;;;5.63;1.73;;;9.30;99.90;;;;;;5053427;28;20033;-81
2023/01/09 00:55:46;;;;;;;4.33;1.30;;;9.20;99.90;;;;;;5053266;28;20029;-81
2023/01/09 00:58:11;;;;;;;7.50;1.80;;;9.30;99.90;;;;;;5052985;28;20032;-81
2023/01/09 01:00:37;;;;;;;3.97;1.50;;;9.30;99.90;;;;;;5053219;28;20040;-81
2023/01/09 01:03:03;;;;;;;5.43;1.75;;;9.30;99.90;;;;;;5053061;28;20092;-81
2023/01/09 01:08:16;;;;;;;8.10;2.28;;;9.30;99.90;;;;;;5033144;28;20041;-81
2023/01/09 01:10:43;;;;;;;7.60;2.45;;;9.30;99.90;;;;;;5039067;28;20043;-81
2023/01/09 01:13:09;;;;;;;5.18;2.22;;;9.30;99.90;;;;;;5043931;28;20037;-81
2023/01/09 01:15:38;;;;;;;9.55;2.65;;;9.30;99.90;;;;;;5052159;28;20096;-81
2023/01/09 01:18:04;;;;;;;6.00;1.92;;;9.30;99.90;;;;;;5048236;28;20107;-80
2023/01/09 01:20:30;;;;;;;7.28;1.83;;;9.20;99.90;;;;;;5051703;28;20577;-81
2023/01/09 01:22:56;;;;;;;7.45;2.15;;;9.30;99.90;;;;;;5052685;28;20025;-81
2023/01/09 01:25:22;;;;;;;5.13;1.40;;;9.30;99.90;;;;;;5052470;28;20512;-81
2023/01/09 01:27:48;;;;;;;7.97;1.75;;;9.30;99.90;;;;;;5052174;28;20025;-81
2023/01/09 01:30:15;;;;;;;11.48;1.70;;;9.30;99.90;;;;;;5047470;28;20434;-81
2023/01/09 01:32:41;;;;;;;5.45;1.58;;;9.30;99.90;;;;;;5045139;28;20033;-81
2023/01/09 01:35:08;;;;;;;5.82;1.88;;;9.20;99.90;;;;;;5030984;28;20094;-81
2023/01/09 01:37:35;;;;;;;5.43;1.88;;;9.30;99.90;;;;;;5044995;28;20033;-81
2023/01/09 01:40:01;;;;;;;4.45;1.40;;;9.20;99.90;;;;;;5052530;28;20033;-81
2023/01/09 01:42:27;;;;;;;7.75;2.25;;;9.20;99.90;;;;;;5052212;28;20104;-81
2023/01/09 01:45:02;;;;;;;5.53;1.30;;;9.30;99.90;;;;;;5052340;28;20100;-81
2023/01/09 01:47:55;;;;;;;5.18;1.60;;;9.20;99.90;;;;;;5051749;28;20021;-81
2023/01/09 01:50:33;;;;;;;8.10;1.88;;;9.20;99.90;;;;;;5051958;28;20025;-81
2023/01/09 01:53:02;;;;;;;7.53;1.70;;;9.20;99.90;;;;;;5044322;28;20033;-81
2023/01/09 01:55:28;;;;;;;7.63;1.92;;;9.20;99.90;;;;;;5043331;28;20576;-81
2023/01/09 01:57:59;;;;;;;7.95;1.88;;;9.20;99.90;;;;;;5047545;28;20033;-81
2023/01/09 02:00:35;;;;;;;7.45;1.58;;;9.20;99.90;;;;;;5046551;28;20024;-81
2023/01/09 02:03:01;;;;;;;7.78;1.58;;;9.30;99.90;;;;;;5050236;28;20029;-81
2023/01/09 02:05:27;;;;;;;9.20;2.28;;;9.20;99.90;;;;;;5035808;28;20387;-81
2023/01/09 02:07:53;;;;;;;9.73;1.92;;;9.20;99.90;;;;;;5031802;28;20033;-81
2023/01/09 02:10:22;;;;;;;8.25;1.70;;;9.20;99.90;;;;;;5031405;28;20025;-81
2023/01/09 02:12:49;;;;;;;5.95;2.03;;;9.20;99.90;;;;;;5031353;28;20026;-81
2023/01/09 02:15:15;;;;;;;9.82;1.80;;;9.20;99.90;;;;;;5049876;28;20039;-81
2023/01/09 02:17:53;;;;;;;7.00;1.88;;;9.10;99.90;;;;;;5051288;28;20032;-81
2023/01/09 02:20:18;;;;;;;7.15;1.83;;;9.10;99.90;;;;;;5051343;28;20100;-81
2023/01/09 02:23:04;;;;;;;6.82;2.85;;;9.00;99.90;;;;;;5046543;28;20571;-81
2023/01/09 02:25:58;;;;;;;12.27;2.60;;;9.00;99.90;;;;;;5037995;28;20494;-81
2023/01/09 02:28:39;;;;;;;7.38;1.73;;;9.00;99.90;;;;;;5051463;28;20542;-81
2023/01/09 02:31:33;;;;;;;5.32;1.67;;;9.10;99.90;;;;;;5050792;28;20028;-81
2023/01/09 02:34:11;;;;;;;9.85;2.08;;;9.10;99.90;;;;;;5048733;28;20498;-81
2023/01/09 02:37:11;;;;;;;10.90;2.13;;;9.10;99.90;;;;;;5050935;28;20033;-81
2023/01/09 02:39:51;;;;;;;10.68;1.95;;;9.20;99.90;;;;;;5050962;28;20151;-81
2023/01/09 02:42:23;;;;;;;11.82;1.95;;;9.10;99.90;;;;;;5045949;28;20029;-81
2023/01/09 02:44:49;;;;;;;8.48;2.80;;;9.10;99.90;;;;;;5049422;28;20029;-81
2023/01/09 02:47:14;;;;;;;6.65;1.60;;;9.10;99.90;;;;;;5050798;28;20032;-81
2023/01/09 02:49:44;;;;;;;7.15;1.90;;;9.10;99.90;;;;;;5050551;28;20029;-81
2023/01/09 02:52:28;;;;;;;10.48;2.25;;;9.10;99.90;;;;;;5050718;28;20517;-81
2023/01/09 02:55:00;;;;;;;10.18;1.95;;;9.10;99.90;;;;;;5051447;28;20056;-81
2023/01/09 02:57:53;;;;;;;7.40;2.05;;;9.10;99.90;;;;;;5050782;28;20036;-81
2023/01/09 03:00:31;;;;;;;7.88;2.13;;;9.00;99.90;;;;;;5050242;28;20060;-81
2023/01/09 03:03:24;;;;;;;16.70;2.42;;;9.00;99.90;;;;;;5042150;28;20022;-81
2023/01/09 03:06:02;;;;;;;9.50;2.00;;;9.00;99.90;;;;;;5030137;28;20029;-80
2023/01/09 03:08:43;;;;;;;9.88;2.00;;;9.00;99.90;;;;;;5040527;28;20017;-80
2023/01/09 03:11:10;;;;;;;10.70;1.50;;;9.10;99.90;;;;;;5050614;28;20111;-81
2023/01/09 03:13:44;;;;;;;10.02;2.67;;;9.10;99.90;;;;;;5039841;28;20498;-81
2023/01/09 03:16:14;;;;;;;8.88;2.40;;;9.10;99.90;;;;;;5050122;28;20142;-80
2023/01/09 03:18:41;;;;;;;7.65;1.90;;;9.00;99.90;;;;;;5045813;28;20202;-81
2023/01/09 03:21:10;;;;;;;12.88;2.67;;;9.00;99.90;;;;;;5030230;28;20061;-81
2023/01/09 03:23:45;;;;;;;9.40;2.47;;;9.00;99.90;;;;;;5034977;28;20021;-81
2023/01/09 03:26:11;;;;;;;11.35;2.95;;;8.90;99.90;;;;;;5045546;28;20549;-81
2023/01/09 03:28:37;;;;;;;8.32;1.83;;;8.90;99.90;;;;;;5036688;28;20017;-81
2023/01/09 03:31:02;;;;;;;7.03;1.60;;;8.80;99.90;;;;;;5050257;28;20544;-81
2023/01/09 03:33:28;;;;;;;9.63;1.67;;;8.80;99.90;;;;;;5050175;28;20025;-81
2023/01/09 03:35:54;;;;;;;14.35;3.03;;;8.80;99.90;;;;;;5050153;28;20083;-81
2023/01/09 03:38:19;;;;;;;9.30;1.80;;;8.80;99.90;;;;;;5048411;28;20024;-81
2023/01/09 03:40:45;;;;;;;8.40;2.03;;;8.80;99.90;;;;;;5035957;28;20554;-81
2023/01/09 03:43:11;;;;;;;6.50;2.10;;;8.80;99.90;;;;;;5037272;28;20085;-81
2023/01/09 03:45:37;;;;;;;13.35;3.28;;;8.80;99.90;;;;;;5056276;28;20024;-80
2023/01/09 03:48:03;;;;;;;13.68;2.72;;;8.80;99.90;;;;;;5041696;28;20470;-80
2023/01/09 03:50:28;;;;;;;9.75;1.60;;;8.90;99.90;;;;;;5054959;28;20033;-81
2023/01/09 03:52:54;;;;;;;7.45;1.63;;;8.80;99.90;;;;;;5049465;28;20021;-81
2023/01/09 03:55:20;;;;;;;7.97;1.80;;;8.80;99.90;;;;;;5048465;28;20025;-81
2023/01/09 03:57:45;;;;;;;8.57;1.98;;;8.80;99.90;;;;;;5056272;28;20107;-81
2023/01/09 04:00:12;;;;;;;7.35;2.17;;;8.70;99.90;;;;;;5056516;28;20029;-81
2023/01/09 04:02:38;;;;;;;7.03;2.03;;;8.60;99.90;;;;;;5055291;28;20112;-81
2023/01/09 04:05:04;;;;;;;7.45;1.48;;;8.60;99.90;;;;;;5056619;28;20526;-81
2023/01/09 04:07:29;;;;;;;7.68;1.67;;;8.50;99.90;;;;;;5056212;28;20025;-81
2023/01/09 04:09:55;;;;;;;5.95;1.48;;;8.60;99.90;;;;;;5056767;28;20035;-81
2023/01/09 04:12:21;;;;;;;3.97;1.20;;;8.50;99.90;;;;;;5052491;28;20025;-81
2023/01/09 04:14:46;;;;;;;5.35;1.35;;;8.40;99.90;;;;;;5051642;28;20040;-81
2023/01/09 04:17:12;;;;;;;5.82;1.48;;;8.40;99.90;;;;;;5055521;28;20498;-81
2023/01/09 04:19:37;;;;;;;9.30;1.70;;;8.50;99.90;;;;;;5051501;28;20120;-81
2023/01/09 04:22:03;;;;;;;10.43;2.25;;;8.40;99.90;;;;;;5055665;28;20096;-81
2023/01/09 04:24:31;;;;;;;6.85;1.67;;;8.40;99.90;;;;;;5056789;28;20121;-81
2023/01/09 04:26:56;;;;;;;7.63;2.10;;;8.40;99.90;;;;;;5050909;28;20024;-81
2023/01/09 04:29:22;;;;;;;7.68;1.77;;;8.50;99.90;;;;;;5049146;28;20037;-81
2023/01/09 04:31:48;;;;;;;11.55;1.73;;;8.50;99.90;;;;;;5056390;28;20506;-81
2023/01/09 04:34:13;;;;;;;12.05;2.00;;;8.60;99.90;;;;;;5055815;28;20037;-81
2023/01/09 04:36:40;;;;;;;7.18;1.95;;;8.50;99.90;;;;;;5051770;28;20507;-81
2023/01/09 04:39:05;;;;;;;8.57;2.60;;;8.40;99.90;;;;;;5048579;28;20025;-81
2023/01/09 04:41:49;;;;;;;9.73;2.10;;;8.40;99.90;;;;;;5049097;28;20071;-81
2023/01/09 04:44:25;;;;;;;5.05;1.73;;;8.40;99.90;;;;;;5049224;28;20024;-81
2023/01/09 04:46:53;;;;;;;10.65;2.10;;;8.40;99.90;;;;;;5045479;28;20025;-81
2023/01/09 04:49:19;;;;;;;6.85;1.80;;;8.40;99.90;;;;;;5054200;28;20029;-81
2023/01/09 04:51:44;;;;;;;8.68;2.03;;;8.30;99.90;;;;;;5056287;28;20036;-81
2023/01/09 04:54:10;;;;;;;6.82;1.63;;;8.30;99.90;;;;;;5056193;28;20460;-81
2023/01/09 04:56:36;;;;;;;10.20;2.40;;;8.30;99.90;;;;;;5052857;28;20087;-81
2023/01/09 04:59:04;;;;;;;5.18;1.63;;;8.40;99.90;;;;;;5051331;28;20070;-81
2023/01/09 05:01:29;;;;;;;9.40;2.22;;;8.40;99.90;;;;;;5052965;28;20017;-81
2023/01/09 05:03:55;;;;;;;6.72;1.67;;;8.40;99.90;;;;;;5049425;28;20099;-81
2023/01/09 05:06:21;;;;;;;7.60;1.33;;;8.40;99.90;;;;;;5038078;28;20454;-81
2023/01/09 05:08:46;;;;;;;7.00;1.50;;;8.50;99.90;;;;;;5049307;28;20063;-82
2023/01/09 05:11:12;;;;;;;6.03;1.30;;;8.50;99.90;;;;;;5048208;28;20096;-81
2023/01/09 05:13:38;;;;;;;6.40;1.30;;;8.20;99.90;;;;;;5039616;28;20488;-81
2023/01/09 05:16:03;;;;;;;10.32;2.20;;;8.00;99.90;;;;;;5048233;28;20029;-81
2023/01/09 05:18:29;;;;;;;4.82;1.67;;;7.80;99.90;;;;;;5049132;28;20025;-80
2023/01/09 05:20:55;;;;;;;4.60;1.30;;;7.70;99.90;;;;;;5068098;28;20025;-80
2023/01/09 05:23:20;;;;;;;5.80;1.63;;;7.70;99.90;;;;;;5050537;28;20054;-80
2023/01/09 05:25:46;;;;;;;10.63;1.70;;;7.70;99.90;;;;;;5047531;28;20014;-80
2023/01/09 05:28:12;;;;;;;7.07;1.60;;;7.60;99.90;;;;;;5047544;28;20029;-80
2023/01/09 05:30:37;;;;;;;8.40;1.80;;;7.60;99.90;;;;;;5047711;28;20107;-80
2023/01/09 05:33:03;;;;;;;9.20;2.55;;;7.80;99.90;;;;;;5048620;28;20490;-80
2023/01/09 05:35:29;;;;;;;8.68;2.20;;;7.80;99.90;;;;;;5047680;28;20064;-80
2023/01/09 05:37:55;;;;;;;6.13;1.70;;;7.80;99.90;;;;;;5044510;28;20509;-80
2023/01/09 05:40:21;;;;;;;6.93;1.70;;;7.80;99.90;;;;;;5032007;28;20029;-80
2023/01/09 05:42:46;;;;;;;8.82;1.80;;;7.80;99.90;;;;;;5047489;28;20028;-80
2023/01/09 05:45:13;;;;;;;9.25;1.70;;;7.80;99.90;;;;;;5052537;28;20036;-80
2023/01/09 05:47:38;;;;;;;8.52;1.50;;;7.90;99.90;;;;;;5051811;28;20032;-80
2023/01/09 05:50:05;;;;;;;10.60;1.80;;;7.90;99.90;;;;;;5051934;28;20025;-80
2023/01/09 05:52:30;;;;;;;7.00;1.77;;;7.80;99.90;;;;;;5051915;28;20021;-80
2023/01/09 05:54:56;;;;;;;4.43;1.77;;;7.80;99.90;;;;;;5051481;28;20407;-80
2023/01/09 05:57:22;;;;;;;9.48;1.80;;;7.80;99.90;;;;;;5051745;28;20441;-80
2023/01/09 05:59:47;;;;;;;4.60;1.52;;;7.80;99.90;;;;;;5051386;28;20032;-80
2023/01/09 06:02:14;;;;;;;8.50;2.00;;;7.80;99.90;;;;;;5051195;28;20534;-80
2023/01/09 06:04:42;;;;;;;5.68;1.38;;;7.80;99.90;;;;;;5051536;28;20039;-81
2023/01/09 06:07:08;;;;;;;9.05;2.03;;;7.80;99.90;;;;;;5051337;28;20013;-81
2023/01/09 06:09:34;;;;;;;4.30;1.40;;;7.80;99.90;;;;;;5050541;28;20024;-80
2023/01/09 06:12:00;;;;;;;8.63;1.55;;;7.80;99.90;;;;;;5052179;28;20410;-81
2023/01/09 06:14:25;;;;;;;8.07;1.98;;;7.90;99.90;;;;;;5041743;28;20126;-81
2023/01/09 06:16:51;;;;;;;8.88;2.00;;;7.80;99.90;;;;;;5050195;28;20520;-80
2023/01/09 06:19:17;;;;;;;5.50;1.65;;;7.80;99.90;;;;;;5051997;28;20463;-81
2023/01/09 06:21:42;;;;;;;5.30;1.92;;;7.70;99.90;;;;;;5051078;28;20445;-81
2023/01/09 06:24:08;;;;;;;10.00;2.63;;;7.80;99.90;;;;;;5046570;28;20484;-81
2023/01/09 06:26:34;;;;;;;9.15;2.13;;;7.80;99.90;;;;;;5048371;28;20055;-81
2023/01/09 06:29:00;;;;;;;4.43;1.65;;;7.80;99.90;;;;;;5051182;28;20067;-81
2023/01/09 06:31:26;;;;;;;10.70;1.90;;;7.90;99.90;;;;;;5051251;28;20021;-80
2023/01/09 06:33:52;;;;;;;7.70;1.63;;;7.90;99.90;;;;;;5050883;28;20027;-80
2023/01/09 06:36:18;;;;;;;6.75;1.85;;;7.90;99.90;;;;;;5036943;28;20024;-80
2023/01/09 06:38:44;;;;;;;11.23;2.03;;;8.00;99.90;;;;;;5051390;28;20021;-80
2023/01/09 06:41:10;;;;;;;7.35;2.00;;;8.00;99.90;;;;;;5051589;28;20505;-81
2023/01/09 06:43:36;;;;;;;8.00;2.10;;;7.90;99.90;;;;;;5051172;28;20486;-81
2023/01/09 06:46:04;;;;;;;12.38;2.38;;;8.00;99.90;;;;;;5051576;28;20108;-80
2023/01/09 06:48:30;;;;;;;7.53;1.80;;;8.00;99.90;;;;;;5051449;28;20021;-80
2023/01/09 06:50:56;;;;;;;12.30;2.58;;;8.10;99.90;;;;;;5051035;28;20028;-80
2023/01/09 06:53:22;;;;;;;16.13;3.40;;;8.00;99.90;;;;;;5050962;28;20017;-80
2023/01/09 06:55:47;;;;;;;10.32;1.95;;;8.00;99.90;;;;;;5050955;28;20538;-80
2023/01/09 06:58:13;;;;;;;10.07;2.28;;;8.00;99.90;;;;;;5051435;28;20036;-80
2023/01/09 07:00:39;;;;;;;9.30;1.92;;;8.00;99.90;;;;;;5046482;28;20075;-80
2023/01/09 07:03:05;;;;;;;6.10;1.80;;;8.00;99.90;;;;;;5030947;28;20583;-80
2023/01/09 07:05:36;;;;;;;9.68;2.28;;;8.00;99.90;;;;;;5047190;28;20534;-80
2023/01/09 07:08:02;;;;;;;;;;;8.00;99.90;;;;;;5051422;28;20021;-80
2023/01/09 07:10:27;;;;;;;10.82;1.95;;;8.00;99.90;;;;;;5051088;28;20434;-80
2023/01/09 07:12:53;;;;;;;5.70;1.50;;;8.00;99.90;;;;;;5050731;28;20466;-80
2023/01/09 07:15:19;;;;;;;7.68;1.70;;;8.00;99.90;;;;;;5047954;28;20112;-80
2023/01/09 07:17:44;;;;;;;8.35;1.90;;;7.90;99.90;;;;;;5055948;28;20043;-80
2023/01/09 07:20:10;;;;;;;6.88;1.70;;;7.90;99.90;;;;;;5050123;28;20815;-80
2023/01/09 07:22:36;;;;;;;13.00;2.28;;;7.90;99.90;;;;;;5066231;28;20032;-80
2023/01/09 07:25:02;;;;;;;11.27;2.17;;;7.90;99.90;;;;;;5050654;28;20025;-81
2023/01/09 07:27:28;;;;;;;4.28;1.92;;;7.90;99.90;;;;;;5050668;28;20024;-80
2023/01/09 07:29:53;;;;;;;5.82;1.08;;;7.90;99.90;;;;;;5050231;28;20079;-80
2023/01/09 07:32:19;;;;;;;9.55;1.95;;;7.90;99.90;;;;;;5050847;28;20030;-80
2023/01/09 07:34:45;;;;;;;7.30;1.73;;;7.80;99.90;;;;;;5045876;28;20601;-81
2023/01/09 07:37:10;;;;;;;6.85;1.92;;;7.90;99.90;;;;;;5040653;28;20033;-80
2023/01/09 07:39:36;;;;;;;6.95;1.85;;;7.80;99.90;;;;;;5050384;28;20457;-80
2023/01/09 07:42:02;;;;;;;12.00;2.45;;;7.80;99.90;;;;;;5050602;28;20634;-80
2023/01/09 07:44:27;;;;;;;7.80;1.63;;;7.80;99.90;;;;;;5050629;28;20106;-80
2023/01/09 07:46:53;;;;;;;11.32;2.20;;;7.80;99.90;;;;;;5045795;28;20461;-80
2023/01/09 07:49:19;;;;;;;8.95;1.77;;;7.70;99.90;;;;;;5046957;28;20485;-80
2023/01/09 07:51:47;;;;;;;14.00;2.45;;;7.70;99.90;;;;;;5050101;28;20035;-81
2023/01/09 07:54:12;;;;;;;6.90;2.38;;;7.70;99.90;;;;;;5050371;28;20021;-80
2023/01/09 07:56:39;;;;;;;8.63;2.20;;;7.70;99.90;;;;;;5039266;28;20120;-80
2023/01/09 07:59:05;;;;;;;9.15;2.25;;;7.70;99.90;;;;;;5062709;28;20024;-80
2023/01/09 08:01:31;;;;;;;9.07;2.25;;;7.70;99.90;;;;;;5048893;28;20059;-80
2023/01/09 08:03:57;;;;;;;8.73;1.88;;;7.80;99.90;;;;;;5050991;28;20025;-80
2023/01/09 08:06:23;;;;;;;6.03;2.03;;;7.80;99.90;;;;;;5050246;28;20021;-80
2023/01/09 08:08:49;;;;;;;10.88;2.35;;;7.80;99.90;;;;;;5050240;28;20403;-80
2023/01/09 08:11:15;;;;;;;8.20;2.80;;;7.90;99.90;;;;;;5050401;28;20552;-80
2023/01/09 08:13:40;;;;;;;8.50;3.10;;;7.90;99.90;;;;;;5050206;28;20028;-81
2023/01/09 08:16:06;;;;;;;7.47;2.60;;;8.00;99.90;;;;;;5050198;28;20546;-80
2023/01/09 08:18:32;;;;;;;6.30;2.30;;;8.00;99.90;;;;;;5050090;28;20534;-80
2023/01/09 08:20:58;;;;;;;8.95;2.38;;;7.90;99.90;;;;;;5050525;28;20078;-80
2023/01/09 08:23:24;;;;;;;6.38;1.70;;;8.00;99.90;;;;;;5050087;28;20542;-81
2023/01/09 08:25:49;;;;;;;9.18;2.17;;;8.00;99.90;;;;;;5049018;28;20490;-81
2023/01/09 08:28:16;;;;;;;11.55;3.25;;;8.00;99.90;;;;;;5049628;28;20025;-81
2023/01/09 08:30:42;;;;;;;11.77;2.25;;;8.00;99.90;;;;;;5041023;28;20106;-80
2023/01/09 08:33:07;;;;;;;5.78;1.80;;;8.00;99.90;;;;;;5036702;28;20115;-80
2023/01/09 08:35:34;;;;;;;10.95;2.17;;;8.00;99.90;;;;;;5044041;28;20029;-81
2023/01/09 08:37:59;;;;;;;7.25;2.08;;;8.00;99.90;;;;;;5050201;28;20031;-81
2023/01/09 08:40:25;;;;;;;12.60;2.40;;;8.00;99.90;;;;;;5049112;28;20033;-81
2023/01/09 08:48:20;;;;;;;3.78;1.30;;;8.10;99.90;;;;;;5049411;28;20040;-82
2023/01/09 08:50:45;;;;;;;6.70;1.48;;;8.20;99.90;;;;;;5050632;28;20040;-79
2023/01/09 08:53:11;;;;;;;6.65;1.38;;;8.30;99.90;;;;;;5040304;28;20112;-80
2023/01/09 08:55:37;;;;;;;6.90;1.70;;;8.50;99.90;;;;;;5052427;28;20611;-80
2023/01/09 08:58:03;;;;;;;6.25;1.70;;;8.70;99.90;;;;;;5052204;28;20124;-79
2023/01/09 09:00:29;;;;;;;4.28;1.75;;;8.80;99.90;;;;;;5052255;28;20116;-80
2023/01/09 09:02:57;;;;;;;5.10;1.35;;;8.80;99.90;;;;;;5051928;28;20418;-80
2023/01/09 09:05:24;;;;;;;5.65;1.50;;;8.70;99.90;;;;;;5048831;28;20049;-80
2023/01/09 09:07:54;;;;;;;6.18;1.70;;;8.60;99.90;;;;;;5048060;28;20022;-80
2023/01/09 09:10:21;;;;;;;4.30;1.40;;;8.50;99.90;;;;;;5052091;28;20039;-80
2023/01/09 09:12:49;;;;;;;11.13;1.70;;;8.40;99.90;;;;;;5044293;28;20053;-79
2023/01/09 09:15:24;;;;;;;10.35;1.85;;;8.30;99.90;;;;;;5052660;28;20036;-80
2023/01/09 09:18:01;;;;;;;8.52;1.95;;;8.30;99.90;;;;;;5046968;28;20025;-80
2023/01/09 09:20:32;;;;;;;5.82;1.83;;;8.20;99.90;;;;;;5049322;28;20039;-80
2023/01/09 09:22:57;;;;;;;6.13;1.38;;;8.00;99.90;;;;;;5052501;28;20048;-80
2023/01/09 09:25:23;;;;;;;5.32;2.20;;;8.00;99.90;;;;;;5053445;28;20482;-81
2023/01/09 09:27:49;;;;;;;5.53;1.50;;;8.00;99.90;;;;;;5051974;28;20436;-81
2023/01/09 09:30:17;;;;;;;7.53;1.70;;;8.10;99.90;;;;;;5046726;28;20553;-81
2023/01/09 09:32:44;;;;;;;7.55;2.47;;;8.10;99.90;;;;;;5045488;28;20049;-81
2023/01/09 09:35:10;;;;;;;4.38;1.75;;;8.10;99.90;;;;;;5051717;28;20033;-81
2023/01/09 09:37:36;;;;;;;10.57;1.92;;;8.40;99.90;;;;;;5051003;28;20029;-81
2023/01/09 09:40:03;;;;;;;6.68;1.55;;;8.70;99.90;;;;;;5052000;28;20028;-81
2023/01/09 09:45:55;;;;;;;7.03;1.80;;;8.90;99.90;;;;;;5051712;28;20063;-81
2023/01/09 09:48:47;;;;;;;5.75;1.40;;;9.20;99.90;;;;;;5039754;28;20025;-81
2023/01/09 09:51:23;;;;;;;6.35;1.45;;;9.10;99.90;;;;;;5075905;28;20032;-81
2023/01/09 09:53:53;;;;;;;4.93;1.83;;;9.00;99.90;;;;;;5052212;28;20112;-82
2023/01/09 09:56:22;;;;;;;6.90;1.73;;;9.30;99.90;;;;;;5051620;28;20047;-82
2023/01/09 09:58:58;;;;;;;5.65;1.10;;;9.40;99.90;;;;;;5046769;28;20029;-82
2023/01/09 10:01:39;;;;;;;8.60;1.77;;;9.30;99.90;;;;;;5046930;28;20037;-81
2023/01/09 10:04:10;;;;;;;3.53;1.30;;;9.30;99.90;;;;;;5042682;28;20116;-82
2023/01/09 10:06:46;;;;;;;4.93;1.42;;;9.60;99.90;;;;;;5051147;28;20621;-81
2023/01/09 10:09:33;;;;;;;3.88;1.58;;;9.30;99.90;;;;;;5051103;28;20025;-81
2023/01/09 10:12:10;;;;;;;3.58;1.75;;;9.10;99.90;;;;;;5054422;28;20188;-82
2023/01/09 10:14:35;;;;;;;3.92;2.00;;;8.90;99.90;;;;;;5042864;28;20087;-83
2023/01/09 10:17:35;;;;;;;6.40;1.92;;;8.80;99.90;;;;;;5050588;28;20049;-81
2023/01/09 10:20:38;;;;;;;4.38;1.90;;;8.70;99.90;;;;;;5048763;28;20581;-80
2023/01/09 10:23:41;;;;;;;6.68;2.60;;;8.90;99.90;;;;;;5048255;28;20029;-81
2023/01/09 10:26:18;;;;;;;5.55;2.17;;;8.90;99.90;;;;;;5056691;28;20100;-82
2023/01/09 10:29:01;;;;;;;7.93;2.83;;;8.80;99.90;;;;;;5038209;28;20511;-82
2023/01/09 10:31:52;;;;;;;7.03;2.65;;;8.70;99.90;;;;;;5046644;28;20041;-81
2023/01/09 10:34:53;;;;;;;7.95;2.97;;;8.60;99.90;;;;;;5048750;28;20083;-82
2023/01/09 10:37:46;;;;;;;6.05;2.40;;;8.60;99.90;;;;;;5038051;28;20033;-82
2023/01/09 10:40:26;;;;;;;4.68;2.53;;;8.60;99.90;;;;;;5038169;28;20036;-81
2023/01/09 10:43:07;;;;;;;4.30;2.13;;;8.70;99.90;;;;;;5045554;28;20026;-82
2023/01/09 10:45:40;;;;;;;8.73;2.65;;;8.70;99.90;;;;;;5043007;28;20073;-81
2023/01/09 10:48:31;;;;;;;9.75;2.65;;;8.80;99.90;;;;;;5037815;28;20494;-81
2023/01/09 10:50:56;;;;;;;6.20;2.72;;;8.90;99.90;;;;;;5049736;28;20051;-81
2023/01/09 10:53:28;;;;;;;7.50;1.90;;;8.90;99.90;;;;;;5045214;28;20021;-81
2023/01/09 10:55:56;;;;;;;;;;;8.90;99.90;;;;;;5048581;28;20114;-81
2023/01/09 10:58:22;;;;;;;7.85;1.88;;;8.90;99.90;;;;;;5065484;28;19940;-81
2023/01/09 11:00:49;;;;;;;7.05;1.90;;;8.80;99.90;;;;;;5039446;28;20063;-81
2023/01/09 11:03:19;;;;;;;5.85;2.10;;;8.70;99.90;;;;;;5045614;28;20518;-81
2023/01/09 11:05:53;;;;;;;8.43;2.58;;;8.70;99.90;;;;;;5048030;28;20063;-81
2023/01/09 11:08:42;;;;;;;5.72;1.77;;;8.70;99.90;;;;;;5045457;28;20534;-81
2023/01/09 11:11:08;;;;;;;6.18;1.48;;;8.50;99.90;;;;;;5037868;28;20039;-81
2023/01/09 11:13:37;;;;;;;6.40;1.77;;;8.40;99.90;;;;;;5049567;28;20029;-81
2023/01/09 11:16:05;;;;;;;4.15;1.63;;;8.40;99.90;;;;;;5049769;28;20074;-81
2023/01/09 11:18:51;;;;;;;5.82;1.60;;;8.70;99.90;;;;;;5048084;28;20037;-83
2023/01/09 11:21:43;;;;;;;8.13;1.60;;;8.70;99.90;;;;;;5049036;28;20028;-82
2023/01/09 11:24:18;;;;;;;2.92;1.25;;;8.60;99.90;;;;;;5054740;28;20033;-82
2023/01/09 11:26:45;;;;;;;3.42;1.33;;;8.60;99.90;;;;;;5032448;28;20021;-82
2023/01/09 11:29:17;;;;;;;3.50;1.15;;;8.70;99.90;;;;;;5028908;28;20053;-83
2023/01/09 11:31:54;;;;;;;3.30;1.42;;;8.60;99.90;;;;;;5029571;28;20029;-82
2023/01/09 11:34:26;;;;;;;3.55;1.42;;;8.60;99.90;;;;;;5030147;28;20505;-82
2023/01/09 11:36:53;;;;;;;6.43;1.20;;;8.60;99.90;;;;;;5036735;28;20028;-82
2023/01/09 11:39:27;;;;;;;4.65;1.60;;;8.80;99.90;;;;;;5049359;28;20044;-82
2023/01/09 11:42:02;;;;;;;4.03;0.90;;;8.90;99.90;;;;;;5047532;28;20036;-82
2023/01/09 11:44:31;;;;;;;12.88;1.77;;;8.70;99.90;;;;;;5049449;28;20032;-83
2023/01/09 11:46:57;;;;;;;3.65;1.40;;;8.60;99.90;;;;;;5040083;28;20026;-82
2023/01/09 11:49:25;;;;;;;3.20;1.25;;;8.50;99.90;;;;;;5045992;28;20079;-83
2023/01/09 11:52:12;;;;;;;5.65;1.38;;;8.40;99.90;;;;;;5039431;28;20032;-82
2023/01/09 11:55:03;;;;;;;3.90;1.55;;;8.30;99.90;;;;;;5049714;28;20029;-83
2023/01/09 11:57:29;;;;;;;4.68;1.40;;;8.30;99.90;;;;;;5048842;28;20124;-83
2023/01/09 12:00:00;;;;;;;2.85;0.95;;;8.20;99.90;;;;;;5045483;28;20242;-82
2023/01/09 12:02:47;;;;;;;4.35;1.40;;;8.30;99.90;;;;;;5047654;28;20096;-82
2023/01/09 12:05:19;;;;;;;3.90;1.20;;;8.20;99.90;;;;;;5051483;28;20029;-81
2023/01/09 12:07:47;;;;;;;4.93;1.60;;;8.20;99.90;;;;;;5045001;28;20045;-80
2023/01/09 12:10:35;;;;;;;4.57;1.60;;;7.40;99.90;;;;;;5033569;28;20026;-81
2023/01/09 12:13:25;;;;;;;10.48;2.85;;;7.20;99.90;;;;;;5051235;28;20033;-80
2023/01/09 12:16:10;;;;;;;3.20;1.67;;;7.00;99.90;;;;;;5042203;28;20029;-80
2023/01/09 12:18:36;;;;;;;2.53;1.00;;;6.90;99.90;;;;;;5049393;28;20053;-80
2023/01/09 12:21:10;;;;;;;2.88;1.52;;;6.90;99.90;;;;;;5043931;28;20102;-80
2023/01/09 12:23:48;;;;;;;3.58;1.85;;;6.90;99.90;;;;;;5051693;28;20119;-79
2023/01/09 12:26:20;;;;;;;4.25;1.80;;;7.00;99.90;;;;;;5038129;28;20060;-80
2023/01/09 12:28:58;;;;;;;6.80;2.40;;;7.10;99.90;;;;;;5053029;28;20562;-80
2023/01/09 12:31:44;;;;;;;4.07;1.55;;;7.10;99.90;;;;;;5053305;28;20029;-80
2023/01/09 12:34:28;;;;;;;3.15;1.70;;;7.20;99.90;;;;;;5049013;28;20068;-80
2023/01/09 12:37:08;;;;;;;6.55;3.20;;;7.30;99.90;;;;;;5042002;28;20179;-80
2023/01/09 12:40:01;;;;;;;4.50;2.80;;;7.40;99.90;;;;;;5048805;28;20046;-80
2023/01/09 12:42:47;;;;;;;2.53;1.88;;;7.50;99.90;;;;;;5048019;28;20029;-80
2023/01/09 12:45:25;;;;;;;5.95;2.22;;;7.50;99.90;;;;;;5054346;28;20097;-80
2023/01/09 12:47:52;;;;;;;5.43;2.22;;;7.60;99.90;;;;;;5053573;28;20033;-80
2023/01/09 12:50:48;;;;;;;2.80;1.92;;;7.70;99.90;;;;;;5055761;28;20091;-80
2023/01/09 12:53:25;;;;;;;5.20;2.42;;;8.00;99.90;;;;;;5057354;28;20051;-80
2023/01/09 12:56:04;;;;;;;5.72;3.70;;;8.40;99.90;;;;;;5052442;28;20032;-80
2023/01/09 12:58:43;;;;;;;4.32;3.30;;;8.60;99.90;;;;;;5052868;28;20033;-80
2023/01/09 13:01:24;;;;;;;4.20;3.15;;;8.80;99.90;;;;;;5037514;28;20066;-80
2023/01/09 13:04:19;;;;;;;6.73;3.63;;;8.80;99.90;;;;;;5052499;28;20021;-81
2023/01/09 13:06:53;;;;;;;4.80;2.97;;;8.80;99.90;;;;;;5052048;28;20333;-81
2023/01/09 13:09:42;;;;;;;6.30;2.47;;;8.80;99.90;;;;;;5048162;28;20053;-81
2023/01/09 13:12:20;;;;;;;9.30;4.57;;;8.90;99.90;;;;;;5048946;28;20111;-81
2023/01/09 13:15:19;;;;;;;10.80;5.55;;;9.00;99.90;;;;;;5044614;28;20021;-80
2023/01/09 13:18:33;;;;;;;14.50;8.15;;;9.00;99.90;;;;;;5051792;28;20021;-81
2023/01/09 13:21:00;;;;;;;18.88;10.48;;;9.00;99.90;;;;;;5032449;28;20066;-80
2023/01/09 13:24:00;;;;;;;27.38;12.65;;;9.10;99.90;;;;;;5049626;28;20053;-80
2023/01/09 13:26:35;;;;;;;21.02;10.77;;;9.30;99.90;;;;;;5049461;28;20135;-80